createdAt,value
2022-10-01T00:02:06.215Z,2.50
2022-10-01T00:04:36.108Z,2.88
2022-10-01T00:07:09.697Z,2.58
2022-10-01T00:09:38.220Z,2.55
2022-10-01T00:12:06.252Z,2.45
2022-10-01T00:14:34.272Z,2.50
2022-10-01T00:17:02.393Z,3.20
2022-10-01T00:19:30.656Z,2.50
2022-10-01T00:21:58.666Z,2.30
2022-10-01T00:24:28.311Z,3.28
2022-10-01T00:26:56.563Z,2.75
2022-10-01T00:29:24.589Z,2.30
2022-10-01T00:31:52.645Z,2.13
2022-10-01T00:34:20.679Z,2.58
2022-10-01T00:36:49.295Z,2.25
2022-10-01T00:39:17.278Z,2.15
2022-10-01T00:41:46.874Z,2.13
2022-10-01T00:44:33.794Z,2.30
2022-10-01T00:47:10.550Z,2.63
2022-10-01T00:49:41.162Z,2.00
2022-10-01T00:52:14.281Z,2.30
2022-10-01T00:54:47.411Z,1.92
2022-10-01T00:57:19.751Z,1.83
2022-10-01T00:59:48.362Z,1.83
2022-10-01T01:02:16.504Z,1.90
2022-10-01T01:04:44.846Z,1.55
2022-10-01T01:07:13.814Z,2.00
2022-10-01T01:09:45.552Z,1.80
2022-10-01T01:12:32.945Z,1.83
2022-10-01T01:15:13.127Z,1.08
2022-10-01T01:17:50.145Z,1.58
2022-10-01T01:20:55.720Z,1.45
2022-10-01T01:23:43.851Z,1.50
2022-10-01T01:26:21.776Z,1.30
2022-10-01T01:28:53.772Z,1.35
2022-10-01T01:31:28.138Z,1.40
2022-10-01T01:33:58.251Z,1.40
2022-10-01T01:36:31.981Z,1.15
2022-10-01T01:39:04.311Z,1.40
2022-10-01T01:41:36.445Z,1.40
2022-10-01T01:44:10.880Z,1.20
2022-10-01T01:46:42.840Z,1.10
2022-10-01T01:49:11.029Z,1.08
2022-10-01T01:51:46.975Z,1.10
2022-10-01T01:54:15.598Z,1.30
2022-10-01T01:56:43.666Z,1.30
2022-10-01T01:59:16.285Z,1.00
2022-10-01T02:01:46.002Z,1.15
2022-10-01T02:04:20.543Z,1.25
2022-10-01T02:07:06.896Z,0.98
2022-10-01T02:09:39.647Z,0.90
2022-10-01T02:12:19.739Z,0.90
2022-10-01T02:14:56.555Z,0.80
2022-10-01T02:17:33.371Z,0.80
2022-10-01T02:20:07.735Z,0.80
2022-10-01T02:22:43.576Z,0.80
2022-10-01T02:25:14.952Z,1.00
2022-10-01T02:27:48.867Z,1.10
2022-10-01T02:30:19.228Z,0.55
2022-10-01T02:32:50.628Z,0.52
2022-10-01T02:35:20.952Z,0.60
2022-10-01T02:37:52.369Z,0.50
2022-10-01T02:40:26.254Z,0.52
2022-10-01T02:42:57.648Z,0.50
2022-10-01T02:45:32.197Z,0.50
2022-10-01T02:48:04.208Z,0.47
2022-10-01T02:50:36.084Z,0.47
2022-10-01T02:53:07.409Z,0.57
2022-10-01T02:55:39.274Z,0.60
2022-10-01T02:58:07.423Z,0.70
2022-10-01T03:00:36.838Z,0.30
2022-10-01T03:03:05.023Z,0.50
2022-10-01T03:05:33.319Z,0.60
2022-10-01T03:08:01.586Z,0.40
2022-10-01T03:10:29.670Z,0.50
2022-10-01T03:12:57.684Z,0.50
2022-10-01T03:15:25.672Z,0.38
2022-10-01T03:17:55.526Z,0.30
2022-10-01T03:20:23.803Z,0.50
2022-10-01T03:22:51.969Z,0.32
2022-10-01T03:25:19.950Z,0.32
2022-10-01T03:27:48.015Z,0.30
2022-10-01T03:30:16.254Z,0.30
2022-10-01T03:32:44.259Z,0.50
2022-10-01T03:35:13.641Z,0.40
2022-10-01T03:37:41.654Z,0.70
2022-10-01T03:40:10.278Z,0.40
2022-10-01T03:42:38.308Z,0.40
2022-10-01T03:45:06.786Z,0.50
2022-10-01T03:47:34.825Z,0.45
2022-10-01T03:50:02.833Z,0.52
2022-10-01T03:52:32.212Z,0.50
2022-10-01T03:55:00.736Z,0.60
2022-10-01T03:57:28.699Z,0.52
2022-10-01T03:59:56.721Z,0.43
2022-10-01T04:02:25.480Z,0.60
2022-10-01T04:04:53.574Z,0.73
2022-10-01T04:07:21.955Z,0.60
2022-10-01T04:09:51.781Z,0.60
2022-10-01T04:12:19.764Z,0.88
2022-10-01T04:14:47.764Z,0.80
2022-10-01T04:17:16.073Z,0.70
2022-10-01T04:19:44.067Z,0.60
2022-10-01T04:22:12.082Z,0.60
2022-10-01T04:24:40.074Z,0.70
2022-10-01T04:27:10.102Z,0.57
2022-10-01T04:29:40.190Z,0.77
2022-10-01T04:32:08.532Z,0.57
2022-10-01T04:34:54.463Z,0.60
2022-10-01T04:39:50.987Z,0.80
2022-10-01T04:42:20.681Z,0.70
2022-10-01T04:44:48.915Z,0.88
2022-10-01T04:47:16.909Z,0.80
2022-10-01T04:49:44.932Z,0.88
2022-10-01T04:52:12.870Z,0.70
2022-10-01T04:54:40.864Z,0.70
2022-10-01T04:57:08.932Z,0.80
2022-10-01T04:59:38.273Z,0.60
2022-10-01T05:02:06.326Z,0.55
2022-10-01T05:04:34.381Z,0.70
2022-10-01T05:07:02.404Z,0.70
2022-10-01T05:09:30.422Z,0.80
2022-10-01T05:11:58.438Z,0.80
2022-10-01T05:14:26.831Z,0.73
2022-10-01T05:16:56.173Z,0.73
2022-10-01T05:19:27.874Z,0.93
2022-10-01T05:21:56.205Z,1.00
2022-10-01T05:24:24.256Z,1.02
2022-10-01T05:26:54.047Z,0.82
2022-10-01T05:29:22.129Z,0.98
2022-10-01T05:31:50.272Z,1.20
2022-10-01T05:34:19.749Z,1.20
2022-10-01T05:36:47.790Z,0.90
2022-10-01T05:39:15.805Z,1.02
2022-10-01T05:41:43.781Z,1.10
2022-10-01T05:44:11.799Z,1.60
2022-10-01T05:46:40.076Z,1.00
2022-10-01T05:49:08.358Z,0.98
2022-10-01T05:51:39.978Z,1.27
2022-10-01T05:54:08.353Z,1.38
2022-10-01T05:56:36.841Z,1.73
2022-10-01T05:59:07.796Z,1.40
2022-10-01T06:01:38.505Z,1.42
2022-10-01T06:04:06.838Z,1.00
2022-10-01T06:06:35.174Z,1.80
2022-10-01T06:09:04.890Z,1.10
2022-10-01T06:11:33.552Z,1.13
2022-10-01T06:14:01.821Z,1.20
2022-10-01T06:16:29.898Z,2.10
2022-10-01T06:18:58.430Z,2.40
2022-10-01T06:21:26.955Z,1.58
2022-10-01T06:23:55.324Z,2.65
2022-10-01T06:26:25.095Z,2.47
2022-10-01T06:28:53.705Z,1.65
2022-10-01T06:31:22.330Z,1.90
2022-10-01T06:33:50.358Z,1.40
2022-10-01T06:36:18.416Z,1.83
2022-10-01T06:38:49.176Z,1.92
2022-10-01T06:41:17.488Z,2.30
2022-10-01T06:43:46.850Z,1.88
2022-10-01T06:46:14.955Z,2.10
2022-10-01T06:48:43.001Z,1.90
2022-10-01T06:51:11.115Z,1.80
2022-10-01T06:53:39.249Z,1.80
2022-10-01T06:56:08.537Z,1.67
2022-10-01T06:58:37.415Z,1.80
2022-10-01T07:01:06.923Z,1.92
2022-10-01T07:03:35.842Z,1.83
2022-10-01T07:06:05.602Z,1.42
2022-10-01T07:08:34.117Z,1.92
2022-10-01T07:11:03.607Z,1.95
2022-10-01T07:13:31.903Z,1.75
2022-10-01T07:16:00.127Z,1.83
2022-10-01T07:18:29.593Z,1.50
2022-10-01T07:20:58.168Z,2.03
2022-10-01T07:23:26.306Z,1.90
2022-10-01T07:25:54.346Z,2.08
2022-10-01T07:28:25.719Z,2.60
2022-10-01T07:31:01.137Z,2.40
2022-10-01T07:33:30.930Z,2.40
2022-10-01T07:36:02.222Z,2.90
2022-10-01T07:38:30.305Z,2.83
2022-10-01T07:40:59.065Z,2.67
2022-10-01T07:43:27.101Z,3.50
2022-10-01T07:45:58.143Z,3.70
2022-10-01T07:48:26.826Z,3.90
2022-10-01T07:50:57.876Z,3.20
2022-10-01T07:53:25.954Z,2.85
2022-10-01T07:55:54.005Z,3.65
2022-10-01T07:58:24.063Z,2.80
2022-10-01T08:00:56.134Z,3.83
2022-10-01T08:03:24.313Z,3.47
2022-10-01T08:05:54.634Z,3.92
2022-10-01T08:08:24.047Z,3.60
2022-10-01T08:10:52.121Z,3.47
2022-10-01T08:13:24.678Z,3.10
2022-10-01T08:15:54.612Z,3.88
2022-10-01T08:18:23.517Z,3.45
2022-10-01T08:20:52.535Z,3.78
2022-10-01T08:23:20.573Z,3.83
2022-10-01T08:25:49.973Z,3.08
2022-10-01T08:28:18.331Z,3.35
2022-10-01T08:30:46.499Z,3.20
2022-10-01T08:33:15.313Z,3.00
2022-10-01T08:35:44.507Z,2.92
2022-10-01T08:38:13.265Z,2.92
2022-10-01T08:40:44.982Z,2.75
2022-10-01T08:43:29.628Z,2.75
2022-10-01T08:46:01.587Z,3.50
2022-10-01T08:48:39.780Z,3.40
2022-10-01T08:51:12.182Z,3.08
2022-10-01T08:53:46.437Z,2.83
2022-10-01T08:56:21.567Z,3.35
2022-10-01T08:58:58.043Z,2.90
2022-10-01T09:01:26.630Z,3.13
2022-10-01T09:03:55.281Z,2.90
2022-10-01T09:06:25.243Z,3.38
2022-10-01T09:09:11.838Z,3.15
2022-10-01T09:11:51.596Z,3.47
2022-10-01T09:14:36.873Z,3.97
2022-10-01T09:17:15.020Z,4.40
2022-10-01T09:19:58.639Z,3.97
2022-10-01T09:22:37.837Z,2.78
2022-10-01T09:25:14.688Z,3.45
2022-10-01T09:27:43.178Z,3.05
2022-10-01T09:30:17.563Z,3.08
2022-10-01T09:32:48.697Z,2.80
2022-10-01T09:35:35.127Z,3.15
2022-10-01T09:38:07.987Z,2.92
2022-10-01T09:40:47.508Z,3.45
2022-10-01T09:43:21.973Z,3.05
2022-10-01T09:45:52.029Z,3.65
2022-10-01T09:48:27.782Z,2.88
2022-10-01T09:51:00.171Z,2.97
2022-10-01T09:53:35.418Z,2.25
2022-10-01T09:56:09.231Z,1.98
2022-10-01T09:58:43.175Z,2.67
2022-10-01T10:01:23.942Z,2.80
2022-10-01T10:03:57.223Z,3.00
2022-10-01T10:06:29.445Z,2.35
2022-10-01T10:08:59.670Z,2.30
2022-10-01T10:11:29.704Z,2.40
2022-10-01T10:14:00.796Z,3.35
2022-10-01T10:16:33.005Z,2.63
2022-10-01T10:19:04.720Z,2.72
2022-10-01T10:21:35.039Z,2.70
2022-10-01T10:24:04.834Z,2.83
2022-10-01T10:26:38.563Z,2.35
2022-10-01T10:29:11.574Z,2.75
2022-10-01T10:31:43.445Z,2.65
2022-10-01T10:34:17.053Z,2.72
2022-10-01T10:36:46.730Z,2.75
2022-10-01T10:39:22.828Z,2.95
2022-10-01T10:41:53.147Z,2.60
2022-10-01T10:44:23.957Z,3.33
2022-10-01T10:46:55.033Z,3.22
2022-10-01T10:49:30.105Z,2.72
2022-10-01T10:52:00.970Z,2.05
2022-10-01T10:54:32.630Z,2.85
2022-10-01T10:57:03.285Z,5.32
2022-10-01T10:59:33.126Z,1.90
2022-10-01T11:02:05.440Z,3.03
2022-10-01T11:04:42.674Z,2.95
2022-10-01T11:07:13.366Z,2.95
2022-10-01T11:10:17.227Z,2.45
2022-10-01T11:13:09.878Z,2.33
2022-10-01T11:15:58.428Z,2.72
2022-10-01T11:18:42.919Z,3.10
2022-10-01T11:21:47.902Z,2.78
2022-10-01T11:24:24.713Z,2.92
2022-10-01T11:27:00.228Z,2.50
2022-10-01T11:32:11.135Z,2.92
2022-10-01T11:35:02.239Z,2.78
2022-10-01T11:37:50.035Z,2.65
2022-10-01T11:40:24.990Z,2.97
2022-10-01T11:42:57.089Z,2.60
2022-10-01T11:45:29.696Z,2.22
2022-10-01T11:48:04.193Z,2.45
2022-10-01T11:50:39.385Z,2.90
2022-10-01T11:53:13.721Z,2.55
2022-10-01T11:56:02.977Z,1.60
2022-10-01T11:58:55.245Z,2.53
2022-10-01T12:01:34.580Z,2.10
2022-10-01T12:04:08.301Z,2.50
2022-10-01T12:06:44.096Z,2.78
2022-10-01T12:09:21.195Z,2.70
2022-10-01T12:11:54.450Z,2.40
2022-10-01T12:14:28.266Z,2.75
2022-10-01T12:17:01.189Z,2.22
2022-10-01T12:19:33.424Z,2.60
2022-10-01T12:22:08.107Z,2.75
2022-10-01T12:24:41.188Z,2.40
2022-10-01T12:27:30.341Z,2.63
2022-10-01T12:30:06.115Z,2.20
2022-10-01T12:32:37.910Z,2.05
2022-10-01T12:35:21.185Z,2.63
2022-10-01T12:38:03.826Z,1.80
2022-10-01T12:40:39.886Z,2.78
2022-10-01T12:43:15.271Z,2.38
2022-10-01T12:45:50.481Z,2.20
2022-10-01T12:48:25.937Z,1.88
2022-10-01T12:51:08.285Z,2.70
2022-10-01T12:53:44.721Z,2.80
2022-10-01T12:56:18.140Z,2.53
2022-10-01T12:59:15.074Z,2.75
2022-10-01T13:01:56.879Z,2.10
2022-10-01T13:04:41.944Z,1.88
2022-10-01T13:07:36.744Z,2.47
2022-10-01T13:10:18.735Z,2.13
2022-10-01T13:13:03.059Z,1.98
2022-10-01T13:15:35.014Z,1.90
2022-10-01T13:18:13.648Z,1.33
2022-10-01T13:20:54.088Z,2.00
2022-10-01T13:23:28.409Z,2.13
2022-10-01T13:26:09.110Z,1.98
2022-10-01T13:28:56.292Z,1.85
2022-10-01T13:31:35.868Z,1.52
2022-10-01T13:34:20.955Z,1.90
2022-10-01T13:36:49.309Z,2.10
2022-10-01T13:39:22.748Z,1.98
2022-10-01T13:41:56.211Z,1.85
2022-10-01T13:44:27.992Z,2.22
2022-10-01T13:47:03.083Z,1.50
2022-10-01T13:49:32.456Z,2.03
2022-10-01T13:52:02.236Z,2.03
2022-10-01T13:54:39.873Z,1.85
2022-10-01T13:57:26.597Z,2.22
2022-10-01T13:59:59.835Z,1.90
2022-10-01T14:02:32.988Z,2.08
2022-10-01T14:05:23.101Z,2.35
2022-10-01T14:07:56.284Z,2.30
2022-10-01T14:10:57.356Z,2.25
2022-10-01T14:13:46.883Z,1.75
2022-10-01T14:16:16.156Z,2.40
2022-10-01T14:18:48.906Z,2.10
2022-10-01T14:21:36.578Z,1.40
2022-10-01T14:24:16.207Z,2.63
2022-10-01T14:26:53.802Z,1.52
2022-10-01T14:29:43.011Z,1.38
2022-10-01T14:32:24.051Z,2.00
2022-10-01T14:35:19.318Z,2.05
2022-10-01T14:37:47.939Z,2.58
2022-10-01T14:40:19.800Z,1.33
2022-10-01T14:42:58.891Z,1.55
2022-10-01T14:45:29.000Z,1.85
2022-10-01T14:48:04.600Z,1.70
2022-10-01T14:50:35.248Z,1.67
2022-10-01T14:53:03.677Z,1.20
2022-10-01T14:55:32.443Z,1.92
2022-10-01T14:58:00.547Z,1.45
2022-10-01T15:00:32.232Z,1.30
2022-10-01T15:03:15.253Z,1.70
2022-10-01T15:05:45.153Z,1.98
2022-10-01T15:08:14.916Z,1.90
2022-10-01T15:10:47.546Z,1.13
2022-10-01T15:13:28.392Z,1.67
2022-10-01T15:15:57.990Z,1.88
2022-10-01T15:18:26.849Z,1.85
2022-10-01T15:20:57.345Z,2.35
2022-10-01T15:23:27.558Z,1.83
2022-10-01T15:25:57.813Z,1.92
2022-10-01T15:28:31.935Z,1.60
2022-10-01T15:31:03.400Z,2.50
2022-10-01T15:33:33.426Z,2.38
2022-10-01T15:36:04.037Z,1.80
2022-10-01T15:38:33.490Z,2.10
2022-10-01T15:41:26.941Z,2.25
2022-10-01T15:43:52.605Z,2.30
2022-10-01T15:46:31.136Z,2.03
2022-10-01T15:49:18.635Z,1.73
2022-10-01T15:52:14.548Z,2.33
2022-10-01T15:54:44.525Z,2.00
2022-10-01T15:57:18.696Z,2.50
2022-10-01T15:59:47.767Z,2.72
2022-10-01T16:02:21.297Z,2.90
2022-10-01T16:04:52.859Z,3.00
2022-10-01T16:07:23.103Z,2.88
2022-10-01T16:09:57.449Z,2.50
2022-10-01T16:12:28.278Z,2.30
2022-10-01T16:15:00.466Z,2.50
2022-10-01T16:17:32.576Z,2.60
2022-10-01T16:20:03.148Z,2.95
2022-10-01T16:22:32.963Z,2.47
2022-10-01T16:25:02.135Z,2.90
2022-10-01T16:27:32.962Z,2.33
2022-10-01T16:30:05.586Z,2.47
2022-10-01T16:32:35.647Z,2.45
2022-10-01T16:35:21.612Z,2.50
2022-10-01T16:37:51.407Z,2.58
2022-10-01T16:40:20.936Z,2.38
2022-10-01T16:42:50.616Z,3.00
2022-10-01T16:45:22.625Z,2.05
2022-10-01T16:47:52.948Z,2.85
2022-10-01T16:50:22.674Z,2.58
2022-10-01T16:52:53.829Z,2.70
2022-10-01T16:55:24.900Z,2.78
2022-10-01T16:57:54.548Z,2.42
2022-10-01T17:00:24.393Z,2.20
2022-10-01T17:02:53.972Z,3.20
2022-10-01T17:05:25.310Z,3.20
2022-10-01T17:07:53.722Z,2.88
2022-10-01T17:10:23.738Z,2.80
2022-10-01T17:12:51.802Z,2.53
2022-10-01T17:15:23.268Z,3.17
2022-10-01T17:17:51.332Z,2.70
2022-10-01T17:20:21.386Z,2.63
2022-10-01T17:22:49.534Z,3.15
2022-10-01T17:25:20.041Z,3.50
2022-10-01T17:27:48.507Z,4.13
2022-10-01T17:30:16.882Z,3.85
2022-10-01T17:32:44.973Z,4.80
2022-10-01T17:35:14.176Z,6.65
2022-10-01T17:37:43.930Z,6.38
2022-10-01T17:40:12.419Z,5.28
2022-10-01T17:42:40.892Z,3.92
2022-10-01T17:45:11.900Z,4.15
2022-10-01T17:47:44.805Z,3.72
2022-10-01T17:50:13.723Z,4.45
2022-10-01T17:52:43.865Z,3.78
2022-10-01T17:55:12.627Z,4.07
2022-10-01T17:57:40.831Z,3.85
2022-10-01T18:00:09.988Z,5.20
2022-10-01T18:02:42.028Z,9.63
2022-10-01T18:05:12.538Z,10.48
2022-10-01T18:07:41.602Z,10.45
2022-10-01T18:10:13.829Z,7.28
2022-10-01T18:12:42.000Z,7.72
2022-10-01T18:15:10.892Z,6.63
2022-10-01T18:17:43.445Z,8.38
2022-10-01T18:20:14.719Z,5.78
2022-10-01T18:22:42.818Z,6.07
2022-10-01T18:25:13.949Z,6.65
2022-10-01T18:27:42.002Z,6.15
2022-10-01T18:30:11.138Z,6.38
2022-10-01T18:32:43.351Z,6.13
2022-10-01T18:35:20.900Z,7.20
2022-10-01T18:37:53.252Z,7.90
2022-10-01T18:40:27.748Z,6.93
2022-10-01T18:43:00.910Z,9.85
2022-10-01T18:45:45.860Z,19.10
2022-10-01T18:48:42.674Z,10.57
2022-10-01T18:51:19.612Z,9.57
2022-10-01T18:54:07.225Z,9.35
2022-10-01T18:56:38.836Z,9.55
2022-10-01T18:59:40.064Z,15.10
2022-10-01T19:02:22.281Z,11.32
2022-10-01T19:05:09.840Z,12.00
2022-10-01T19:07:54.950Z,12.90
2022-10-01T19:10:32.948Z,10.63
2022-10-01T19:13:11.727Z,11.57
2022-10-01T19:15:51.236Z,9.63
2022-10-01T19:18:40.339Z,9.57
2022-10-01T19:21:16.909Z,15.32
2022-10-01T19:24:27.084Z,14.50
2022-10-01T19:27:02.250Z,8.70
2022-10-01T19:29:55.065Z,8.27
2022-10-01T19:32:25.906Z,7.65
2022-10-01T19:35:01.772Z,6.90
2022-10-01T19:37:36.692Z,7.85
2022-10-01T19:40:15.700Z,7.43
2022-10-01T19:42:50.029Z,7.25
2022-10-01T19:45:25.914Z,7.28
2022-10-01T19:48:02.795Z,7.80
2022-10-01T19:50:35.852Z,6.72
2022-10-01T19:53:05.588Z,7.18
2022-10-01T19:55:38.894Z,7.97
2022-10-01T19:58:17.535Z,7.25
2022-10-01T20:00:50.600Z,7.28
2022-10-01T20:03:23.596Z,6.22
2022-10-01T20:05:55.138Z,7.72
2022-10-01T20:08:41.463Z,6.20
2022-10-01T20:11:16.037Z,6.72
2022-10-01T20:14:08.496Z,5.97
2022-10-01T20:16:43.852Z,6.50
2022-10-01T20:19:26.698Z,6.72
2022-10-01T20:22:01.726Z,6.43
2022-10-01T20:24:46.282Z,7.63
2022-10-01T20:27:30.350Z,7.38
2022-10-01T20:30:05.751Z,5.90
2022-10-01T20:32:42.772Z,7.30
2022-10-01T20:35:26.213Z,6.90
2022-10-01T20:38:08.370Z,6.60
2022-10-01T20:40:43.100Z,6.05
2022-10-01T20:43:17.394Z,5.47
2022-10-01T20:45:48.312Z,5.65
2022-10-01T20:48:21.549Z,6.45
2022-10-01T20:50:53.951Z,6.10
2022-10-01T20:53:31.248Z,6.95
2022-10-01T20:56:05.046Z,5.95
2022-10-01T20:58:36.118Z,6.38
2022-10-01T21:01:10.016Z,5.53
2022-10-01T21:03:44.326Z,4.93
2022-10-01T21:06:16.686Z,5.78
2022-10-01T21:08:51.738Z,5.07
2022-10-01T21:11:28.505Z,4.80
2022-10-01T21:14:01.776Z,5.10
2022-10-01T21:16:53.443Z,5.45
2022-10-01T21:19:39.977Z,5.88
2022-10-01T21:22:21.025Z,6.53
2022-10-01T21:24:59.342Z,4.90
2022-10-01T21:27:57.095Z,5.32
2022-10-01T21:30:25.258Z,5.05
2022-10-01T21:33:07.714Z,4.35
2022-10-01T21:35:50.021Z,5.35
2022-10-01T21:38:30.331Z,6.28
2022-10-01T21:41:17.244Z,5.25
2022-10-01T21:44:10.062Z,5.85
2022-10-01T21:46:44.382Z,4.88
2022-10-01T21:49:24.451Z,5.40
2022-10-01T21:52:05.018Z,6.07
2022-10-01T21:55:05.728Z,4.50
2022-10-01T21:57:51.662Z,4.90
2022-10-01T22:03:01.179Z,4.93
2022-10-01T22:05:37.416Z,4.85
2022-10-01T22:08:25.391Z,4.63
2022-10-01T22:10:57.865Z,5.57
2022-10-01T22:13:30.187Z,5.15
2022-10-01T22:16:01.891Z,4.93
2022-10-01T22:18:34.864Z,5.50
2022-10-01T22:21:04.720Z,4.10
2022-10-01T22:23:38.039Z,6.20
2022-10-01T22:26:13.125Z,5.20
2022-10-01T22:28:43.575Z,5.30
2022-10-01T22:31:16.344Z,4.85
2022-10-01T22:33:49.874Z,4.70
2022-10-01T22:36:25.883Z,5.47
2022-10-01T22:38:57.859Z,5.53
2022-10-01T22:41:33.597Z,5.07
2022-10-01T22:44:07.498Z,4.30
2022-10-01T22:47:11.710Z,5.43
2022-10-01T22:49:52.427Z,6.30
2022-10-01T22:52:32.206Z,6.22
2022-10-01T22:55:15.389Z,5.00
2022-10-01T22:57:57.853Z,5.88
2022-10-01T23:00:26.709Z,4.72
2022-10-01T23:03:07.918Z,5.25
2022-10-01T23:05:46.362Z,5.43
2022-10-01T23:08:23.122Z,5.70
2022-10-01T23:11:00.814Z,5.13
2022-10-01T23:13:39.217Z,5.13
2022-10-01T23:16:16.462Z,5.47
2022-10-01T23:18:55.198Z,6.30
2022-10-01T23:21:34.359Z,5.70
2022-10-01T23:24:18.036Z,5.70
2022-10-01T23:27:00.928Z,6.25
2022-10-01T23:29:46.951Z,5.88
2022-10-01T23:32:27.493Z,5.28
2022-10-01T23:35:05.813Z,5.53
2022-10-01T23:37:56.739Z,6.03
2022-10-01T23:40:29.640Z,6.93
2022-10-01T23:43:04.543Z,4.78
2022-10-01T23:45:35.838Z,5.88
2022-10-01T23:48:07.691Z,5.97
2022-10-01T23:50:38.708Z,6.93
2022-10-01T23:53:14.212Z,6.30
2022-10-01T23:58:47.224Z,5.75
